KCVO/CVO METAR and TAF weather

Enter ICAO airport designator
Station Type Date Time Source
KCVO METAR 2018/07/21 12:56 UTC NOAA

KCVO 211256Z AUTO 30006KT 10SM CLR 11/07 A3014 RMK AO2 SLP206 T01110072


Station Type Date Time Source
KCVO Decoded METAR 2018/07/21 12:56 UTC NOAA

Corvallis, Corvallis Municipal Airport, OR, United States (KCVO) 44-30N 123-17W
Jul 21, 2018 - 08:56 AM EDT / 2018.07.21 1256 UTC
Wind: from the WNW (300 degrees) at 7 MPH (6 KT):0
Visibility: 10 mile(s):0
Sky conditions: clear
Temperature: 52.0 F (11.1 C)
Dew Point: 45.0 F (7.2 C)
Relative Humidity: 76%
Pressure (altimeter): 30.14 in. Hg (1020 hPa)
ob: KCVO 211256Z AUTO 30006KT 10SM CLR 11/07 A3014 RMK AO2 SLP206 T01110072
cycle: 13

Station Type Date Time Source
KCVO TAF UTC NOAA

Error!


Example: see airport list